This is the latest recevied weather packets stored in our database for station/object EA1IXY-2. If no packets are shown the sender has not sent any weather packets the latest 10 day(s).
| Time | Temp. | Humidity | Pressure | Rain* | Wind** | Luminosity | Snow |
|---|---|---|---|---|---|---|---|
| 1777898663 | 38.33° C | 16% | 928 hPa | - | - | - | - |
| 1777897763 | 38.33° C | 16% | 928.3 hPa | - | - | - | - |
| 1777896863 | 38.33° C | 17% | 928.3 hPa | - | - | - | - |
| 1777895963 | 37.78° C | 17% | 927.2 hPa | - | - | - | - |
| 1777895063 | 38.33° C | 17% | 928.5 hPa | - | - | - | - |
| 1777894163 | 38.33° C | 17% | 928.5 hPa | - | - | - | - |
| 1777893263 | 38.33° C | 17% | 928.8 hPa | - | - | - | - |
| 1777892363 | 38.33° C | 17% | 928.7 hPa | - | - | - | - |
| 1777891463 | 37.78° C | 17% | 928.9 hPa | - | - | - | - |
| 1777890563 | 36.67° C | 17% | 927.5 hPa | - | - | - | - |
| 1777889651 | 38.33° C | 17% | 928.8 hPa | - | - | - | - |
| 1777888751 | 37.78° C | 17% | 928.9 hPa | - | - | - | - |
| 1777887851 | 38.33° C | 17% | 928.8 hPa | - | - | - | - |
| 1777886951 | 38.33° C | 17% | 928.8 hPa | - | - | - | - |
| 1777886050 | 38.33° C | 16% | 928.9 hPa | - | - | - | - |
| 1777885150 | 38.33° C | 17% | 928.8 hPa | - | - | - | - |
| 1777884250 | 38.33° C | 17% | 928.7 hPa | - | - | - | - |
| 1777883350 | 38.89° C | 16% | 928.5 hPa | - | - | - | - |
| 1777882450 | 38.89° C | 16% | 928.6 hPa | - | - | - | - |
| 1777881550 | 38.89° C | 16% | 928.5 hPa | - | - | - | - |
| 1777880650 | 38.89° C | 16% | 928.6 hPa | - | - | - | - |
| 1777879750 | 37.22° C | 15% | 927.2 hPa | - | - | - | - |
| 1777878838 | 38.33° C | 15% | 928.4 hPa | - | - | - | - |
| 1777877938 | 38.33° C | 17% | 928.2 hPa | - | - | - | - |
| 1777877038 | 38.89° C | 18% | 928.2 hPa | - | - | - | - |
* Rain since midnight (hover to see other rain measurements)
** Current wind speed in m/s (hover to see current wind gust speed)